Time;durP1;ratioP1;P1;durP2;ratioP2;P2;SDS_P1;SDS_P2;PMS_P1;PMS_P2;Temp;Humidity;BMP_temperature;BMP_pressure;BME280_temperature;BME280_humidity;BME280_pressure;Samples;Min_cycle;Max_cycle;Signal;HPM_P1;HPM_P2
2022/01/29 00:00:19;;;;;;;16.60;12.20;;;;;;;7.71;53.77;100661.94;5091021;28;20074;-48
2022/01/29 00:02:45;;;;;;;16.83;12.55;;;;;;;7.68;54.00;100657.78;5092316;28;20027;-48
2022/01/29 00:05:11;;;;;;;17.00;11.15;;;;;;;7.65;53.53;100654.63;5091024;28;20028;-48
2022/01/29 00:07:42;;;;;;;25.95;17.13;;;;;;;7.68;54.06;100649.13;5092190;28;20016;-48
2022/01/29 00:10:10;;;;;;;17.98;11.32;;;;;;;7.74;53.71;100641.56;5092328;28;20375;-48
2022/01/29 00:12:35;;;;;;;18.67;11.63;;;;;;;7.83;53.04;100633.88;5090904;28;20016;-48
2022/01/29 00:15:02;;;;;;;397.73;341.50;;;;;;;7.73;52.83;100634.69;5090789;28;20486;-48
2022/01/29 00:17:28;;;;;;;96.13;76.72;;;;;;;7.54;54.10;100632.84;5091557;28;20107;-49
2022/01/29 00:19:54;;;;;;;65.68;56.28;;;;;;;7.52;54.50;100634.75;5092113;28;20063;-49
2022/01/29 00:22:20;;;;;;;44.42;31.30;;;;;;;7.51;53.86;100633.13;5092005;28;20031;-49
2022/01/29 00:24:45;;;;;;;27.27;18.95;;;;;;;7.45;53.83;100632.81;5092036;28;20095;-47
2022/01/29 00:27:11;;;;;;;25.58;16.15;;;;;;;7.61;54.19;100627.94;5091919;28;20116;-48
2022/01/29 00:29:40;;;;;;;23.17;14.75;;;;;;;7.67;53.25;100631.78;5091968;28;20024;-49
2022/01/29 00:32:07;;;;;;;21.00;13.68;;;;;;;7.68;53.04;100633.44;5091978;28;20051;-49
2022/01/29 00:34:33;;;;;;;24.63;15.23;;;;;;;7.61;53.29;100633.16;5091928;28;20039;-49
2022/01/29 00:36:59;;;;;;;21.23;13.27;;;;;;;7.56;53.01;100627.47;5091882;28;20028;-49
2022/01/29 00:39:25;;;;;;;33.65;14.95;;;;;;;7.51;53.44;100627.88;5091838;28;20020;-47
2022/01/29 00:41:50;;;;;;;22.30;12.45;;;;;;;7.54;53.16;100625.00;5091628;28;20051;-48
2022/01/29 00:44:16;;;;;;;25.77;14.25;;;;;;;7.59;53.52;100632.47;5090535;28;20561;-49
2022/01/29 00:46:42;;;;;;;23.10;13.43;;;;;;;7.62;52.99;100620.91;5091676;28;20028;-48
2022/01/29 00:49:12;;;;;;;22.33;13.57;;;;;;;7.61;53.77;100622.69;5091819;28;20023;-47
2022/01/29 00:51:38;;;;;;;19.10;13.35;;;;;;;7.63;53.10;100626.00;5091793;28;20052;-49
2022/01/29 00:54:04;;;;;;;22.58;13.25;;;;;;;7.60;53.50;100628.88;5090458;28;20032;-48
2022/01/29 00:56:30;;;;;;;22.83;13.43;;;;;;;7.57;53.13;100627.34;5091669;28;20028;-48
2022/01/29 00:58:56;;;;;;;16.83;12.02;;;;;;;7.55;53.41;100623.22;5091728;28;20031;-48
2022/01/29 01:01:22;;;;;;;24.13;14.90;;;;;;;7.46;53.49;100621.41;5091632;28;20024;-48
2022/01/29 01:03:48;;;;;;;19.63;12.20;;;;;;;7.30;53.68;100614.06;5091638;28;20012;-48
2022/01/29 01:06:13;;;;;;;23.58;14.25;;;;;;;7.19;53.55;100618.41;5091559;28;20031;-47
2022/01/29 01:08:39;;;;;;;20.63;12.63;;;;;;;7.05;53.61;100623.97;5091606;28;20021;-48
2022/01/29 01:11:05;;;;;;;22.85;12.98;;;;;;;7.06;54.05;100614.34;5091538;28;20103;-48
2022/01/29 01:13:32;;;;;;;19.35;13.18;;;;;;;7.20;54.33;100604.41;5091599;28;20378;-47
2022/01/29 01:15:58;;;;;;;19.00;13.43;;;;;;;7.36;53.71;100603.06;5091553;28;20028;-47
2022/01/29 01:18:23;;;;;;;19.13;13.90;;;;;;;7.33;53.83;100598.94;5090175;28;20027;-47
2022/01/29 01:20:49;;;;;;;21.55;13.90;;;;;;;7.28;53.80;100595.06;5091455;28;20482;-48
2022/01/29 01:23:15;;;;;;;22.02;13.55;;;;;;;7.26;54.02;100597.00;5091457;28;20047;-48
2022/01/29 01:25:40;;;;;;;17.75;13.18;;;;;;;7.14;53.91;100593.63;5091304;28;20623;-48
2022/01/29 01:28:06;;;;;;;21.88;15.00;;;;;;;6.92;53.98;100594.63;5090634;28;20393;-47
2022/01/29 01:30:32;;;;;;;22.98;14.93;;;;;;;6.86;54.70;100603.84;5095182;28;20547;-48
2022/01/29 01:33:01;;;;;;;20.23;13.65;;;;;;;6.71;54.30;100600.69;5095221;28;20567;-48
2022/01/29 01:35:33;;;;;;;23.27;14.05;;;;;;;6.73;55.17;100603.19;5095144;28;20024;-48
2022/01/29 01:38:09;;;;;;;26.75;17.65;;;;;;;6.70;54.69;100608.66;5095174;28;20379;-48
2022/01/29 01:40:36;;;;;;;20.52;14.65;;;;;;;6.62;54.92;100608.47;5095108;28;20028;-47
2022/01/29 01:43:02;;;;;;;20.70;13.05;;;;;;;6.54;55.33;100614.31;5094871;28;20052;-48
2022/01/29 01:45:28;;;;;;;21.20;13.00;;;;;;;6.56;55.38;100610.63;5094921;28;20016;-48
2022/01/29 01:47:55;;;;;;;24.80;13.73;;;;;;;6.70;55.53;100613.88;5094841;28;20390;-49
2022/01/29 01:50:21;;;;;;;19.38;13.60;;;;;;;6.87;55.22;100613.28;5094881;28;20020;-48
2022/01/29 01:52:51;;;;;;;21.00;15.10;;;;;;;6.86;54.54;100610.81;5093492;28;20069;-48
2022/01/29 01:55:17;;;;;;;25.25;15.38;;;;;;;6.65;54.75;100618.66;5094806;28;20024;-48
2022/01/29 01:57:44;;;;;;;22.38;15.15;;;;;;;6.60;54.92;100616.44;5094726;28;20020;-48
2022/01/29 02:00:10;;;;;;;19.88;13.25;;;;;;;6.54;54.76;100619.53;5094675;28;20130;-47
2022/01/29 02:02:36;;;;;;;25.25;13.73;;;;;;;6.40;55.38;100621.50;5094662;28;20059;-47
2022/01/29 02:05:03;;;;;;;22.02;14.68;;;;;;;6.45;55.52;100618.50;5094601;28;20012;-48
2022/01/29 02:07:30;;;;;;;23.48;12.93;;;;;;;6.50;55.42;100618.97;5094468;28;20024;-49
2022/01/29 02:09:55;;;;;;;24.85;14.73;;;;;;;6.40;55.25;100621.50;5094546;28;20547;-49
2022/01/29 02:12:24;;;;;;;20.45;14.32;;;;;;;6.30;55.36;100614.53;5094436;28;20028;-48
2022/01/29 02:14:51;;;;;;;18.23;13.45;;;;;;;6.33;55.85;100609.91;5094434;28;20020;-48
2022/01/29 02:17:17;;;;;;;24.27;14.10;;;;;;;6.38;55.40;100606.94;5094280;28;20031;-48
2022/01/29 02:19:43;;;;;;;21.10;14.57;;;;;;;6.48;55.75;100597.41;5092993;28;20394;-47
2022/01/29 02:22:08;;;;;;;20.23;13.98;;;;;;;6.47;55.37;100595.75;5094333;28;20031;-48
2022/01/29 02:24:36;;;;;;;21.05;14.20;;;;;;;6.49;55.28;100588.63;5092891;28;20020;-48
2022/01/29 02:27:02;;;;;;;23.08;13.18;;;;;;;6.47;55.18;100581.88;5094130;28;20054;-48
2022/01/29 02:29:27;;;;;;;21.25;13.90;;;;;;;6.38;55.72;100586.91;5094140;28;20016;-48
2022/01/29 02:31:57;;;;;;;22.80;14.13;;;;;;;6.20;55.40;100584.00;5092720;28;20032;-48
2022/01/29 02:34:24;;;;;;;18.30;12.98;;;;;;;6.14;55.65;100579.31;5094034;28;20031;-47
2022/01/29 02:36:54;;;;;;;23.13;15.35;;;;;;;6.10;55.27;100567.47;5094021;28;20400;-47
2022/01/29 02:39:21;;;;;;;20.30;12.85;;;;;;;6.01;55.25;100573.41;5093957;28;20501;-47
2022/01/29 02:41:47;;;;;;;30.08;17.63;;;;;;;5.91;56.24;100564.66;5093128;28;20028;-48
2022/01/29 02:44:16;;;;;;;20.45;12.90;;;;;;;5.95;56.59;100561.69;5093840;28;20375;-48
2022/01/29 02:46:56;;;;;;;22.63;14.88;;;;;;;5.98;56.32;100558.88;5093708;28;20586;-49
2022/01/29 02:49:25;;;;;;;23.58;17.13;;;;;;;6.03;56.08;100561.09;5093844;28;20024;-49
2022/01/29 02:51:54;;;;;;;28.50;14.43;;;;;;;6.15;56.51;100565.28;5093725;28;20069;-48
2022/01/29 02:54:21;;;;;;;20.85;14.25;;;;;;;6.13;56.64;100569.81;5093654;28;20027;-48
2022/01/29 02:56:47;;;;;;;26.02;15.40;;;;;;;6.15;56.41;100562.69;5093618;28;20413;-49
2022/01/29 02:59:13;;;;;;;25.83;14.00;;;;;;;6.16;56.23;100560.94;5093543;28;20024;-49
2022/01/29 03:01:39;;;;;;;26.50;15.27;;;;;;;5.97;56.11;100566.78;5092181;28;20024;-48
2022/01/29 03:04:05;;;;;;;24.77;16.50;;;;;;;5.90;56.56;100571.66;5092167;28;20110;-48
2022/01/29 03:06:31;;;;;;;22.00;14.70;;;;;;;6.00;56.70;100571.78;5093294;28;20027;-48
2022/01/29 03:08:57;;;;;;;64.65;51.65;;;;;;;6.34;56.59;100579.47;5092036;28;20511;-49
2022/01/29 03:11:23;;;;;;;23.63;16.70;;;;;;;6.69;56.15;100573.09;5091914;28;20123;-48
2022/01/29 03:13:49;;;;;;;24.25;13.63;;;;;;;6.77;54.46;100581.09;5091954;28;20024;-47
2022/01/29 03:16:16;;;;;;;24.40;14.00;;;;;;;6.76;55.09;100582.88;5091937;28;20051;-48
2022/01/29 03:18:42;;;;;;;23.23;13.27;;;;;;;6.86;55.13;100575.13;5091847;28;20027;-47
2022/01/29 03:21:08;;;;;;;18.10;13.30;;;;;;;6.97;54.84;100571.59;5093102;28;20149;-48
2022/01/29 03:23:33;;;;;;;22.17;14.85;;;;;;;7.08;54.66;100573.28;5093090;28;20095;-48
2022/01/29 03:26:00;;;;;;;23.20;13.48;;;;;;;7.20;53.75;100564.38;5092881;28;20119;-48
2022/01/29 03:28:30;;;;;;;18.85;13.38;;;;;;;7.25;53.45;100567.44;5092926;28;20020;-47
2022/01/29 03:30:56;;;;;;;22.67;14.32;;;;;;;7.31;53.66;100566.91;5092908;28;20027;-47
2022/01/29 03:33:23;;;;;;;24.23;14.20;;;;;;;7.37;53.45;100563.78;5092896;28;20032;-48
2022/01/29 03:35:49;;;;;;;24.45;14.43;;;;;;;7.35;53.06;100570.91;5092898;28;20012;-49
2022/01/29 03:38:15;;;;;;;22.02;14.48;;;;;;;7.11;53.09;100576.47;5092814;28;20024;-48
2022/01/29 03:40:42;;;;;;;25.42;15.27;;;;;;;6.80;53.39;100575.59;5091413;28;20398;-48
2022/01/29 03:43:11;;;;;;;24.58;15.48;;;;;;;6.43;53.55;100578.69;5091272;28;20123;-48
2022/01/29 03:45:38;;;;;;;23.48;14.70;;;;;;;6.14;54.45;100573.28;5092702;28;20025;-48
2022/01/29 03:48:06;;;;;;;26.67;13.77;;;;;;;6.07;55.07;100577.31;5091537;28;20031;-48
2022/01/29 03:50:33;;;;;;;19.52;13.15;;;;;;;6.21;55.27;100574.41;5092589;28;20397;-47
2022/01/29 03:52:59;;;;;;;23.70;14.38;;;;;;;6.29;55.00;100576.38;5090407;28;20022;-47
2022/01/29 03:55:25;;;;;;;34.58;20.52;;;;;;;6.13;54.95;100572.41;5092464;28;20019;-48
2022/01/29 03:57:50;;;;;;;22.38;15.48;;;;;;;6.08;55.40;100571.16;5091124;28;20028;-48
2022/01/29 04:00:17;;;;;;;22.48;14.65;;;;;;;6.07;55.69;100575.53;5092440;28;20020;-47
2022/01/29 04:02:42;;;;;;;23.15;13.98;;;;;;;6.05;56.09;100563.56;5092460;28;20102;-47
2022/01/29 04:05:09;;;;;;;22.83;13.73;;;;;;;6.08;55.66;100563.34;5092328;28;20115;-48
2022/01/29 04:07:35;;;;;;;25.75;15.43;;;;;;;6.11;55.60;100563.06;5091025;28;20560;-48
2022/01/29 04:10:00;;;;;;;21.40;14.55;;;;;;;6.15;55.88;100570.50;5092293;28;20107;-48
2022/01/29 04:12:29;;;;;;;20.65;13.38;;;;;;;6.17;55.23;100570.41;5092207;28;20047;-48
2022/01/29 04:14:57;;;;;;;23.38;14.02;;;;;;;6.16;55.37;100577.41;5092236;28;20432;-49
2022/01/29 04:17:23;;;;;;;21.52;14.15;;;;;;;6.06;55.71;100567.84;5092143;28;20023;-49
2022/01/29 04:19:49;;;;;;;22.88;12.85;;;;;;;6.00;55.73;100571.78;5092195;28;20482;-48
2022/01/29 04:22:15;;;;;;;25.02;14.95;;;;;;;5.76;55.86;100564.94;5092123;28;20107;-48
2022/01/29 04:24:41;;;;;;;21.38;13.65;;;;;;;5.60;56.54;100554.91;5092059;28;20477;-47
2022/01/29 04:27:17;;;;;;;23.48;14.27;;;;;;;5.56;57.09;100557.91;5090642;28;20034;-48
2022/01/29 04:29:54;;;;;;;18.33;13.18;;;;;;;5.69;56.74;100548.13;5092071;28;20050;-48
2022/01/29 04:32:28;;;;;;;25.75;13.98;;;;;;;5.90;56.16;100543.00;5092002;28;20028;-49
2022/01/29 04:34:54;;;;;;;25.33;15.10;;;;;;;6.05;56.03;100545.34;5092064;28;20024;-49
2022/01/29 04:37:20;;;;;;;26.58;14.55;;;;;;;6.16;56.25;100540.91;5092170;28;20035;-47
2022/01/29 04:39:45;;;;;;;26.33;15.55;;;;;;;6.31;56.41;100537.97;5090533;28;20024;-48
2022/01/29 04:42:11;;;;;;;20.15;14.48;;;;;;;6.38;55.52;100536.53;5091630;28;20127;-47
2022/01/29 04:44:36;;;;;;;23.85;14.38;;;;;;;6.28;55.29;100541.69;5090468;28;20115;-49
2022/01/29 04:47:02;;;;;;;19.65;14.15;;;;;;;6.19;55.27;100539.81;5091690;28;20020;-48
2022/01/29 04:49:28;;;;;;;23.15;15.15;;;;;;;6.26;56.33;100540.13;5091857;28;20031;-49
2022/01/29 04:51:54;;;;;;;22.85;13.35;;;;;;;6.36;55.66;100541.06;5091711;28;20024;-48
2022/01/29 04:54:19;;;;;;;34.10;25.60;;;;;;;6.49;55.49;100540.84;5091713;28;20020;-49
2022/01/29 04:56:45;;;;;;;28.88;20.52;;;;;;;6.51;55.47;100546.75;5092001;28;20034;-48
2022/01/29 04:59:10;;;;;;;20.27;13.80;;;;;;;6.47;55.06;100556.63;5091724;28;20337;-47
2022/01/29 05:01:36;;;;;;;25.52;14.63;;;;;;;6.29;54.86;100552.94;5090385;28;20024;-47
2022/01/29 05:04:02;;;;;;;20.98;13.20;;;;;;;6.22;55.32;100551.75;5093755;28;20458;-47
2022/01/29 05:06:27;;;;;;;20.02;13.43;;;;;;;6.27;55.58;100557.44;5095640;28;20024;-47
2022/01/29 05:08:53;;;;;;;21.02;13.70;;;;;;;6.44;55.68;100561.25;5094428;28;20111;-48
2022/01/29 05:11:19;;;;;;;21.23;13.45;;;;;;;6.49;55.37;100557.31;5095631;28;20486;-48
2022/01/29 05:13:44;;;;;;;23.80;13.85;;;;;;;6.43;54.98;100557.81;5094251;28;20016;-47
2022/01/29 05:16:35;;;;;;;22.23;13.60;;;;;;;6.42;55.07;100560.56;5095535;28;20491;-47
2022/01/29 05:27:13;;;;;;;21.08;14.50;;;;;;;6.35;54.63;100558.44;5095296;28;20149;-48
2022/01/29 05:29:38;;;;;;;23.90;14.20;;;;;;;6.30;54.59;100560.63;5095320;28;20113;-49
2022/01/29 05:32:08;;;;;;;21.83;14.52;;;;;;;6.27;54.74;100562.66;5095196;28;20028;-48
2022/01/29 05:34:35;;;;;;;22.10;13.65;;;;;;;6.20;55.24;100570.16;5095210;28;20103;-49
2022/01/29 05:37:02;;;;;;;20.65;13.52;;;;;;;6.13;55.41;100567.22;5095125;28;20027;-49
2022/01/29 05:39:28;;;;;;;19.83;14.18;;;;;;;5.99;55.37;100570.94;5094055;28;20073;-48
2022/01/29 05:41:54;;;;;;;23.13;13.82;;;;;;;6.02;56.02;100582.06;5094817;28;20119;-49
2022/01/29 05:44:20;;;;;;;20.58;13.02;;;;;;;6.13;55.55;100576.81;5094974;28;20025;-49
2022/01/29 05:46:46;;;;;;;25.02;13.20;;;;;;;6.27;55.14;100581.72;5094897;28;20016;-48
2022/01/29 05:49:12;;;;;;;27.33;14.57;;;;;;;6.35;55.20;100589.75;5094928;28;20035;-47
2022/01/29 05:51:37;;;;;;;25.55;18.05;;;;;;;6.47;55.02;100590.53;5093526;28;20016;-48
2022/01/29 05:54:04;;;;;;;21.35;13.77;;;;;;;6.46;54.25;100588.88;5094807;28;20028;-48
2022/01/29 05:56:30;;;;;;;21.17;14.63;;;;;;;6.30;54.02;100601.50;5094789;28;20028;-48
2022/01/29 05:58:56;;;;;;;21.73;13.63;;;;;;;6.05;54.92;100600.88;5094792;28;20024;-49
2022/01/29 06:01:22;;;;;;;29.60;19.33;;;;;;;5.95;54.84;100594.75;5093303;28;20024;-49
2022/01/29 06:03:48;;;;;;;22.02;13.75;;;;;;;5.91;55.44;100603.75;5094756;28;20039;-48
2022/01/29 06:06:14;;;;;;;23.25;14.27;;;;;;;6.02;55.34;100600.31;5094554;28;20020;-49
2022/01/29 06:08:40;;;;;;;21.55;14.57;;;;;;;6.13;55.05;100601.09;5094575;28;20024;-47
2022/01/29 06:11:06;;;;;;;27.95;16.05;;;;;;;6.08;55.11;100594.63;5094742;28;20028;-48
2022/01/29 06:13:32;;;;;;;22.30;15.38;;;;;;;5.96;54.89;100599.03;5094458;28;20520;-49
2022/01/29 06:15:58;;;;;;;24.70;15.07;;;;;;;5.85;55.47;100597.25;5093390;28;20013;-48
2022/01/29 06:18:25;;;;;;;29.17;18.52;;;;;;;5.72;55.65;100599.19;5094437;28;20466;-49
2022/01/29 06:20:57;;;;;;;27.33;16.67;;;;;;;5.60;56.01;100603.59;5094362;28;20020;-48
2022/01/29 06:23:31;;;;;;;21.40;14.88;;;;;;;5.35;55.85;100605.50;5094327;28;20027;-48
2022/01/29 06:25:58;;;;;;;23.65;15.75;;;;;;;5.28;56.59;100609.50;5094226;28;20016;-47
2022/01/29 06:28:24;;;;;;;23.25;15.65;;;;;;;5.28;56.47;100606.09;5094185;28;20052;-48
2022/01/29 06:30:50;;;;;;;39.00;24.95;;;;;;;5.37;57.21;100610.56;5094123;28;20051;-48
2022/01/29 06:33:15;;;;;;;23.73;17.15;;;;;;;5.51;56.95;100612.09;5094104;28;20047;-48
2022/01/29 06:35:43;;;;;;;25.60;16.20;;;;;;;5.63;56.71;100618.13;5094033;28;20055;-48
2022/01/29 06:38:11;;;;;;;29.83;16.50;;;;;;;5.78;56.94;100619.53;5094049;28;20034;-47
2022/01/29 06:40:38;;;;;;;23.58;15.52;;;;;;;5.92;55.99;100624.47;5093958;28;20020;-49
2022/01/29 06:43:05;;;;;;;23.88;16.42;;;;;;;5.97;55.85;100634.56;5093721;28;20036;-48
2022/01/29 06:45:32;;;;;;;28.38;15.50;;;;;;;6.00;55.61;100624.72;5093854;28;20046;-48
2022/01/29 06:47:58;;;;;;;23.67;14.40;;;;;;;6.06;55.33;100626.00;5093715;28;20024;-49
2022/01/29 06:50:25;;;;;;;33.72;26.10;;;;;;;6.18;55.64;100624.19;5093801;28;20035;-48
2022/01/29 06:52:51;;;;;;;19.45;15.18;;;;;;;6.06;55.01;100626.00;5093722;28;20016;-47
2022/01/29 06:55:16;;;;;;;23.25;13.32;;;;;;;5.79;54.97;100635.06;5093600;28;20385;-48
2022/01/29 06:57:42;;;;;;;21.50;12.35;;;;;;;5.78;55.75;100629.97;5093637;28;20035;-48
2022/01/29 07:00:09;;;;;;;23.77;14.27;;;;;;;5.90;55.16;100635.97;5093529;28;20030;-48
2022/01/29 07:02:35;;;;;;;24.77;16.92;;;;;;;6.03;55.18;100639.28;5093547;28;20070;-48
2022/01/29 07:05:03;;;;;;;20.52;13.25;;;;;;;6.16;54.85;100632.13;5093431;28;20058;-47
2022/01/29 07:07:28;;;;;;;28.45;16.35;;;;;;;6.25;54.66;100642.78;5093387;28;20027;-49
2022/01/29 07:09:54;;;;;;;19.30;14.68;;;;;;;6.33;54.60;100641.19;5092077;28;20028;-48
2022/01/29 07:12:20;;;;;;;20.60;14.27;;;;;;;6.22;54.14;100645.63;5093366;28;20471;-48
2022/01/29 07:14:49;;;;;;;23.45;13.48;;;;;;;6.16;55.01;100639.97;5093281;28;20020;-48
2022/01/29 07:17:17;;;;;;;17.38;12.10;;;;;;;6.25;54.24;100645.38;5093518;28;20034;-48
2022/01/29 07:19:44;;;;;;;25.70;14.00;;;;;;;6.28;53.92;100655.56;5093216;28;20046;-49
2022/01/29 07:22:11;;;;;;;19.02;13.07;;;;;;;6.35;54.21;100651.50;5093130;28;20027;-48
2022/01/29 07:24:38;;;;;;;21.40;12.32;;;;;;;6.52;53.90;100647.50;5093390;28;20497;-48
2022/01/29 07:27:05;;;;;;;21.63;12.40;;;;;;;6.55;53.14;100650.72;5092849;28;20355;-49
2022/01/29 07:29:33;;;;;;;18.95;11.90;;;;;;;6.51;53.11;100651.91;5092973;28;20055;-48
2022/01/29 07:31:59;;;;;;;25.13;12.38;;;;;;;6.56;53.67;100649.78;5091572;28;20488;-48
2022/01/29 07:34:27;;;;;;;25.30;15.00;;;;;;;6.49;53.54;100642.56;5091590;28;20118;-47
2022/01/29 07:36:53;;;;;;;22.83;12.80;;;;;;;6.26;53.40;100654.84;5092788;28;20513;-47
2022/01/29 07:39:20;;;;;;;20.27;11.95;;;;;;;6.24;54.17;100660.22;5092842;28;20026;-49
2022/01/29 07:41:46;;;;;;;19.60;13.07;;;;;;;6.09;53.52;100667.47;5092541;28;20110;-49
2022/01/29 07:44:12;;;;;;;17.10;11.90;;;;;;;6.07;54.54;100678.97;5092736;28;20112;-47
2022/01/29 07:46:39;;;;;;;21.85;12.13;;;;;;;6.10;53.58;100682.16;5092594;28;20027;-49
2022/01/29 07:49:04;;;;;;;20.23;14.52;;;;;;;6.10;53.52;100692.59;5092637;28;20020;-48
2022/01/29 07:51:30;;;;;;;24.63;18.70;;;;;;;6.10;54.62;100696.97;5091256;28;20521;-47
2022/01/29 07:53:56;;;;;;;20.23;13.85;;;;;;;6.24;53.82;100701.06;5091265;28;20027;-48
2022/01/29 07:56:22;;;;;;;20.58;12.93;;;;;;;6.35;53.23;100685.41;5092501;28;20625;-48
2022/01/29 07:58:49;;;;;;;24.73;14.13;;;;;;;6.50;52.88;100696.38;5091191;28;20026;-48
2022/01/29 08:01:15;;;;;;;21.85;12.32;;;;;;;6.53;53.09;100688.31;5092428;28;20482;-49
2022/01/29 08:03:41;;;;;;;21.25;12.27;;;;;;;6.59;52.75;100687.81;5091120;28;20085;-48
2022/01/29 08:06:08;;;;;;;29.13;25.52;;;;;;;6.70;53.12;100679.94;5092225;28;20030;-48
2022/01/29 08:08:34;;;;;;;21.50;14.25;;;;;;;6.48;52.53;100696.53;5092379;28;20100;-47
2022/01/29 08:11:00;;;;;;;24.17;15.30;;;;;;;6.02;53.30;100697.59;5092294;28;20046;-49
2022/01/29 08:13:25;;;;;;;28.88;18.77;;;;;;;5.97;54.12;100695.31;5092269;28;20020;-47
2022/01/29 08:15:51;;;;;;;20.05;13.23;;;;;;;6.15;54.18;100695.63;5092170;28;20020;-47
2022/01/29 08:18:17;;;;;;;25.08;13.65;;;;;;;6.39;53.87;100697.25;5092161;28;20047;-48
2022/01/29 08:20:42;;;;;;;22.50;13.40;;;;;;;6.51;53.53;100698.88;5092144;28;20016;-48
2022/01/29 08:23:10;;;;;;;20.90;15.20;;;;;;;6.65;52.93;100702.97;5092158;28;20020;-49
2022/01/29 08:25:37;;;;;;;21.80;13.93;;;;;;;6.71;52.97;100701.63;5092107;28;20501;-48
2022/01/29 08:28:04;;;;;;;24.33;13.63;;;;;;;6.62;52.79;100700.63;5091948;28;20012;-48
2022/01/29 08:30:30;;;;;;;22.58;12.77;;;;;;;6.57;52.17;100703.59;5092025;28;20440;-48
2022/01/29 08:32:56;;;;;;;29.30;15.63;;;;;;;6.39;52.82;100703.28;5091981;28;20020;-48
2022/01/29 08:35:21;;;;;;;25.20;13.13;;;;;;;6.46;53.18;100700.19;5091976;28;20031;-48
2022/01/29 08:37:47;;;;;;;21.40;13.60;;;;;;;6.51;52.45;100701.47;5090038;28;20028;-49
2022/01/29 08:40:13;;;;;;;26.17;12.52;;;;;;;6.55;52.97;100709.88;5091915;28;20020;-48
2022/01/29 08:42:40;;;;;;;20.65;12.80;;;;;;;6.58;52.52;100707.03;5091633;28;20101;-48
2022/01/29 08:45:07;;;;;;;22.33;12.65;;;;;;;6.56;52.94;100714.13;5091815;28;20035;-49
2022/01/29 08:47:34;;;;;;;30.05;22.40;;;;;;;6.58;52.39;100715.69;5091811;28;20065;-48
2022/01/29 08:50:03;;;;;;;25.35;14.95;;;;;;;6.60;52.48;100712.97;5090501;28;20020;-48
2022/01/29 08:52:32;;;;;;;25.45;15.15;;;;;;;6.63;52.10;100724.91;5090534;28;20047;-49
2022/01/29 08:54:58;;;;;;;23.67;13.52;;;;;;;6.60;52.01;100721.59;5091844;28;20024;-48
2022/01/29 08:57:24;;;;;;;20.30;11.93;;;;;;;6.62;52.16;100718.88;5091795;28;20020;-49
2022/01/29 08:59:49;;;;;;;21.05;12.68;;;;;;;6.62;52.12;100721.50;5091813;28;20043;-49
2022/01/29 09:02:16;;;;;;;21.52;13.68;;;;;;;6.65;52.24;100730.84;5091774;28;20032;-48
2022/01/29 09:04:42;;;;;;;20.10;12.45;;;;;;;6.70;52.20;100734.75;5090381;28;20077;-47
2022/01/29 09:07:09;;;;;;;18.20;12.55;;;;;;;6.77;51.75;100737.66;5091576;28;20048;-48
2022/01/29 09:09:36;;;;;;;19.77;11.85;;;;;;;6.79;51.94;100733.16;5091592;28;20490;-48
2022/01/29 09:12:03;;;;;;;19.27;12.25;;;;;;;6.81;51.56;100733.84;5091576;28;20913;-47
2022/01/29 09:14:29;;;;;;;21.35;13.43;;;;;;;6.76;51.83;100730.78;5090242;28;20038;-48
2022/01/29 09:16:54;;;;;;;23.23;13.32;;;;;;;6.77;52.49;100725.44;5091562;28;20024;-48
2022/01/29 09:19:20;;;;;;;21.20;13.02;;;;;;;6.80;52.15;100733.03;5091546;28;20535;-49
2022/01/29 09:21:46;;;;;;;26.83;13.95;;;;;;;6.89;52.47;100734.06;5091484;28;20027;-48
2022/01/29 09:24:12;;;;;;;23.08;14.43;;;;;;;7.02;51.64;100730.44;5091506;28;20024;-48
2022/01/29 09:26:37;;;;;;;46.22;39.03;;;;;;;6.82;51.37;100732.06;5090024;28;20024;-48
2022/01/29 09:29:03;;;;;;;19.52;13.27;;;;;;;6.58;52.09;100738.34;5091402;28;20028;-49
2022/01/29 09:31:29;;;;;;;23.02;11.95;;;;;;;6.50;52.38;100740.72;5091425;28;20044;-48
2022/01/29 09:33:55;;;;;;;19.48;9.35;;;;;;;6.55;52.38;100722.94;5091416;28;20089;-48
2022/01/29 09:36:23;;;;;;;20.17;15.20;;;;;;;6.62;51.92;100726.72;5091370;28;20074;-48
2022/01/29 09:38:49;;;;;;;20.15;12.25;;;;;;;6.79;52.20;100720.94;5091431;28;20020;-48
2022/01/29 09:41:18;;;;;;;16.58;11.10;;;;;;;6.88;52.11;100716.75;5089716;28;20039;-48
2022/01/29 09:43:46;;;;;;;63.75;49.05;;;;;;;6.57;52.41;100716.63;5090014;28;20044;-48
2022/01/29 09:46:16;;;;;;;185.27;156.02;;;;;;;6.40;53.01;100722.38;5091163;28;20030;-48
2022/01/29 09:48:44;;;;;;;74.65;57.15;;;;;;;6.56;53.38;100719.34;5091286;28;20030;-48
2022/01/29 09:51:13;;;;;;;34.83;22.60;;;;;;;6.77;52.88;100719.41;5093348;28;20392;-48
2022/01/29 09:53:43;;;;;;;31.85;18.50;;;;;;;6.90;52.36;100722.69;5094955;28;20056;-48
2022/01/29 09:56:16;;;;;;;16.48;10.43;;;;;;;6.92;51.77;100714.69;5094850;28;20024;-49
2022/01/29 09:58:43;;;;;;;19.30;11.82;;;;;;;7.00;51.79;100713.13;5094810;28;20512;-49
2022/01/29 10:01:09;;;;;;;20.38;14.07;;;;;;;6.96;51.53;100726.53;5093442;28;20532;-48
2022/01/29 10:03:35;;;;;;;15.60;9.85;;;;;;;6.82;51.79;100725.06;5094702;28;20028;-48
2022/01/29 10:06:02;;;;;;;14.30;9.77;;;;;;;6.68;52.25;100727.97;5094599;28;20016;-48
2022/01/29 10:08:29;;;;;;;16.02;10.52;;;;;;;6.72;51.39;100729.38;5094706;28;20035;-48
2022/01/29 10:10:58;;;;;;;21.48;13.23;;;;;;;6.66;51.20;100729.88;5094510;28;20553;-49
2022/01/29 10:13:27;;;;;;;18.80;10.93;;;;;;;6.72;51.60;100725.00;5093186;28;20035;-48
2022/01/29 10:16:23;;;;;;;16.67;9.70;;;;;;;6.73;51.74;100731.03;5093094;28;20031;-48
2022/01/29 10:19:09;;;;;;;16.75;9.10;;;;;;;6.78;51.76;100724.50;5094465;28;20028;-48
2022/01/29 10:21:37;;;;;;;20.08;10.15;;;;;;;6.96;51.23;100711.72;5094420;28;20111;-48
2022/01/29 10:24:06;;;;;;;18.33;10.77;;;;;;;7.06;50.70;100721.38;5094312;28;20399;-49
2022/01/29 10:26:36;;;;;;;26.23;11.13;;;;;;;7.03;51.02;100729.50;5094183;28;20043;-49
2022/01/29 10:29:06;;;;;;;16.55;10.57;;;;;;;7.22;51.29;100727.00;5094198;28;20028;-49
2022/01/29 10:31:52;;;;;;;18.85;10.02;;;;;;;7.23;50.23;100723.44;5094281;28;20397;-48
2022/01/29 10:34:53;;;;;;;17.55;11.27;;;;;;;7.11;50.31;100725.28;5092882;28;20034;-48
2022/01/29 10:37:24;;;;;;;15.52;10.55;;;;;;;6.96;50.92;100722.16;5094101;28;20032;-48
2022/01/29 10:40:23;;;;;;;15.93;10.32;;;;;;;7.14;50.73;100727.66;5092755;28;20043;-49
2022/01/29 10:42:49;;;;;;;17.05;11.38;;;;;;;7.18;50.54;100736.03;5093796;28;20060;-48
2022/01/29 10:45:31;;;;;;;20.63;12.63;;;;;;;6.83;50.27;100731.13;5092573;28;20062;-49
2022/01/29 10:47:58;;;;;;;19.90;11.80;;;;;;;6.47;51.54;100726.16;5093873;28;20024;-48
2022/01/29 10:50:24;;;;;;;16.88;11.02;;;;;;;6.38;51.86;100727.72;5093791;28;20021;-48
2022/01/29 10:52:50;;;;;;;16.95;10.13;;;;;;;6.48;52.49;100712.16;5092381;28;20028;-48
2022/01/29 10:55:16;;;;;;;21.52;11.25;;;;;;;6.77;51.65;100722.84;5092392;28;20031;-47
2022/01/29 10:57:45;;;;;;;17.77;11.32;;;;;;;7.12;51.70;100713.91;5093605;28;20028;-48
2022/01/29 11:00:23;;;;;;;21.85;12.00;;;;;;;7.37;51.13;100706.63;5092281;28;20028;-48
2022/01/29 11:02:51;;;;;;;15.85;10.43;;;;;;;7.54;50.94;100713.00;5093132;28;20512;-48
2022/01/29 11:05:18;;;;;;;19.60;10.90;;;;;;;7.48;49.67;100714.34;5093483;28;20031;-48
2022/01/29 11:07:51;;;;;;;17.85;11.65;;;;;;;7.26;50.55;100711.91;5093418;28;20035;-48
2022/01/29 11:10:18;;;;;;;22.10;12.15;;;;;;;6.97;50.83;100715.97;5092332;28;20023;-48
2022/01/29 11:12:49;;;;;;;20.05;13.10;;;;;;;6.80;51.21;100716.53;5092019;28;20127;-49
2022/01/29 11:15:18;;;;;;;20.92;11.38;;;;;;;6.85;51.97;100714.38;5091979;28;20038;-48
2022/01/29 11:17:45;;;;;;;20.75;12.52;;;;;;;7.04;52.08;100723.31;5093244;28;20028;-49
2022/01/29 11:20:11;;;;;;;20.27;12.48;;;;;;;7.18;51.65;100720.38;5093214;28;20043;-49
2022/01/29 11:22:40;;;;;;;18.25;11.40;;;;;;;7.41;51.08;100715.84;5093172;28;20028;-48
2022/01/29 11:25:15;;;;;;;16.85;11.20;;;;;;;7.53;50.81;100716.59;5091801;28;20101;-48